sensor_id;sensor_type;location;lat;lon;timestamp;P1;durP1;ratioP1;P2;durP2;ratioP2
23015;SDS011;11674;52.428;13.584;2023-05-10T00:02:32;18.85;;;9.07;;
23015;SDS011;11674;52.428;13.584;2023-05-10T00:07:39;5.40;;;4.00;;
23015;SDS011;11674;52.428;13.584;2023-05-10T00:12:46;8.90;;;4.70;;
23015;SDS011;11674;52.428;13.584;2023-05-10T00:17:53;6.55;;;3.95;;
23015;SDS011;11674;52.428;13.584;2023-05-10T00:23:00;5.93;;;4.07;;
23015;SDS011;11674;52.428;13.584;2023-05-10T00:28:07;9.73;;;4.60;;
23015;SDS011;11674;52.428;13.584;2023-05-10T00:33:14;9.85;;;4.45;;
23015;SDS011;11674;52.428;13.584;2023-05-10T00:38:21;7.28;;;4.88;;
23015;SDS011;11674;52.428;13.584;2023-05-10T00:43:28;7.13;;;4.70;;
23015;SDS011;11674;52.428;13.584;2023-05-10T00:48:35;10.38;;;5.20;;
23015;SDS011;11674;52.428;13.584;2023-05-10T00:53:43;9.38;;;5.03;;
23015;SDS011;11674;52.428;13.584;2023-05-10T00:58:51;6.60;;;4.65;;
23015;SDS011;11674;52.428;13.584;2023-05-10T01:03:58;7.63;;;5.30;;
23015;SDS011;11674;52.428;13.584;2023-05-10T01:09:06;7.85;;;4.82;;
23015;SDS011;11674;52.428;13.584;2023-05-10T01:14:13;11.93;;;5.78;;
23015;SDS011;11674;52.428;13.584;2023-05-10T01:19:24;7.05;;;4.78;;
23015;SDS011;11674;52.428;13.584;2023-05-10T01:35:38;7.78;;;4.60;;
23015;SDS011;11674;52.428;13.584;2023-05-10T01:40:54;5.57;;;4.32;;
23015;SDS011;11674;52.428;13.584;2023-05-10T01:46:35;7.78;;;5.03;;
23015;SDS011;11674;52.428;13.584;2023-05-10T01:51:44;7.03;;;4.63;;
23015;SDS011;11674;52.428;13.584;2023-05-10T01:56:56;10.05;;;4.70;;
23015;SDS011;11674;52.428;13.584;2023-05-10T02:02:08;8.23;;;4.40;;
23015;SDS011;11674;52.428;13.584;2023-05-10T02:07:18;7.53;;;4.65;;
23015;SDS011;11674;52.428;13.584;2023-05-10T02:12:26;6.40;;;4.38;;
23015;SDS011;11674;52.428;13.584;2023-05-10T02:17:36;6.18;;;4.18;;
23015;SDS011;11674;52.428;13.584;2023-05-10T02:22:44;10.20;;;4.88;;
23015;SDS011;11674;52.428;13.584;2023-05-10T02:27:54;10.10;;;4.68;;
23015;SDS011;11674;52.428;13.584;2023-05-10T02:33:03;6.38;;;4.10;;
23015;SDS011;11674;52.428;13.584;2023-05-10T02:38:11;7.60;;;4.30;;
23015;SDS011;11674;52.428;13.584;2023-05-10T02:43:20;6.22;;;4.30;;
23015;SDS011;11674;52.428;13.584;2023-05-10T02:48:30;7.10;;;3.90;;
23015;SDS011;11674;52.428;13.584;2023-05-10T02:53:38;14.52;;;7.93;;
23015;SDS011;11674;52.428;13.584;2023-05-10T02:58:50;10.13;;;4.80;;
23015;SDS011;11674;52.428;13.584;2023-05-10T03:03:57;28.70;;;14.20;;
23015;SDS011;11674;52.428;13.584;2023-05-10T03:09:04;7.88;;;4.30;;
23015;SDS011;11674;52.428;13.584;2023-05-10T03:20:04;8.88;;;4.50;;
23015;SDS011;11674;52.428;13.584;2023-05-10T03:25:15;10.07;;;4.65;;
23015;SDS011;11674;52.428;13.584;2023-05-10T03:30:23;8.35;;;4.38;;
23015;SDS011;11674;52.428;13.584;2023-05-10T03:35:31;8.23;;;4.57;;
23015;SDS011;11674;52.428;13.584;2023-05-10T03:40:39;12.40;;;4.25;;
23015;SDS011;11674;52.428;13.584;2023-05-10T03:45:46;6.78;;;4.78;;
23015;SDS011;11674;52.428;13.584;2023-05-10T03:50:56;6.60;;;4.22;;
23015;SDS011;11674;52.428;13.584;2023-05-10T03:56:03;13.20;;;4.90;;
23015;SDS011;11674;52.428;13.584;2023-05-10T04:01:11;6.43;;;3.90;;
23015;SDS011;11674;52.428;13.584;2023-05-10T04:06:17;9.93;;;3.80;;
23015;SDS011;11674;52.428;13.584;2023-05-10T04:11:25;10.85;;;4.30;;
23015;SDS011;11674;52.428;13.584;2023-05-10T04:16:31;11.02;;;5.68;;
23015;SDS011;11674;52.428;13.584;2023-05-10T04:21:38;8.18;;;4.43;;
23015;SDS011;11674;52.428;13.584;2023-05-10T04:26:59;6.10;;;3.87;;
23015;SDS011;11674;52.428;13.584;2023-05-10T04:32:16;9.13;;;4.82;;
23015;SDS011;11674;52.428;13.584;2023-05-10T04:37:26;11.80;;;6.25;;
23015;SDS011;11674;52.428;13.584;2023-05-10T04:42:32;7.22;;;3.63;;
23015;SDS011;11674;52.428;13.584;2023-05-10T04:47:39;8.57;;;5.25;;
23015;SDS011;11674;52.428;13.584;2023-05-10T04:52:46;7.45;;;3.70;;
23015;SDS011;11674;52.428;13.584;2023-05-10T04:57:53;9.18;;;4.82;;
23015;SDS011;11674;52.428;13.584;2023-05-10T05:03:00;4.93;;;3.33;;
23015;SDS011;11674;52.428;13.584;2023-05-10T05:08:07;7.53;;;4.55;;
23015;SDS011;11674;52.428;13.584;2023-05-10T05:13:14;7.20;;;3.63;;
23015;SDS011;11674;52.428;13.584;2023-05-10T05:18:21;6.72;;;3.33;;
23015;SDS011;11674;52.428;13.584;2023-05-10T05:23:35;5.03;;;3.33;;
23015;SDS011;11674;52.428;13.584;2023-05-10T05:28:42;4.75;;;3.05;;
23015;SDS011;11674;52.428;13.584;2023-05-10T05:33:49;6.80;;;3.40;;
23015;SDS011;11674;52.428;13.584;2023-05-10T05:38:57;3.97;;;2.90;;
23015;SDS011;11674;52.428;13.584;2023-05-10T05:44:03;3.85;;;2.88;;
23015;SDS011;11674;52.428;13.584;2023-05-10T05:49:10;4.13;;;2.60;;
23015;SDS011;11674;52.428;13.584;2023-05-10T05:54:17;7.40;;;2.67;;
23015;SDS011;11674;52.428;13.584;2023-05-10T05:59:24;6.88;;;2.40;;
23015;SDS011;11674;52.428;13.584;2023-05-10T06:04:31;10.45;;;2.67;;
23015;SDS011;11674;52.428;13.584;2023-05-10T06:09:38;3.78;;;2.35;;
23015;SDS011;11674;52.428;13.584;2023-05-10T06:14:45;5.88;;;2.63;;
23015;SDS011;11674;52.428;13.584;2023-05-10T06:19:52;3.35;;;2.30;;
23015;SDS011;11674;52.428;13.584;2023-05-10T06:24:59;7.75;;;2.30;;
23015;SDS011;11674;52.428;13.584;2023-05-10T06:30:07;4.45;;;2.63;;
23015;SDS011;11674;52.428;13.584;2023-05-10T06:35:14;6.40;;;2.97;;
23015;SDS011;11674;52.428;13.584;2023-05-10T06:40:21;8.15;;;2.70;;
23015;SDS011;11674;52.428;13.584;2023-05-10T06:45:28;5.82;;;2.60;;
23015;SDS011;11674;52.428;13.584;2023-05-10T06:50:35;6.00;;;2.47;;
23015;SDS011;11674;52.428;13.584;2023-05-10T06:55:42;5.70;;;2.50;;
23015;SDS011;11674;52.428;13.584;2023-05-10T07:00:49;4.20;;;2.50;;
23015;SDS011;11674;52.428;13.584;2023-05-10T07:06:03;5.70;;;2.60;;
23015;SDS011;11674;52.428;13.584;2023-05-10T07:11:10;8.40;;;2.28;;
23015;SDS011;11674;52.428;13.584;2023-05-10T07:16:18;3.78;;;2.47;;
23015;SDS011;11674;52.428;13.584;2023-05-10T07:21:24;7.38;;;2.20;;
23015;SDS011;11674;52.428;13.584;2023-05-10T07:26:31;3.80;;;2.40;;
23015;SDS011;11674;52.428;13.584;2023-05-10T07:31:38;3.55;;;1.90;;
23015;SDS011;11674;52.428;13.584;2023-05-10T07:36:45;4.13;;;2.53;;
23015;SDS011;11674;52.428;13.584;2023-05-10T07:41:53;7.70;;;2.35;;
23015;SDS011;11674;52.428;13.584;2023-05-10T07:47:00;10.13;;;2.30;;
23015;SDS011;11674;52.428;13.584;2023-05-10T07:52:07;4.68;;;1.95;;
23015;SDS011;11674;52.428;13.584;2023-05-10T07:57:15;2.85;;;2.03;;
23015;SDS011;11674;52.428;13.584;2023-05-10T08:02:21;4.13;;;2.08;;
23015;SDS011;11674;52.428;13.584;2023-05-10T08:07:32;3.72;;;2.22;;
23015;SDS011;11674;52.428;13.584;2023-05-10T08:12:38;4.07;;;2.35;;
23015;SDS011;11674;52.428;13.584;2023-05-10T08:17:45;10.82;;;2.30;;
23015;SDS011;11674;52.428;13.584;2023-05-10T08:22:52;3.05;;;2.00;;
23015;SDS011;11674;52.428;13.584;2023-05-10T08:27:59;10.18;;;2.50;;
23015;SDS011;11674;52.428;13.584;2023-05-10T08:33:06;6.40;;;2.30;;
23015;SDS011;11674;52.428;13.584;2023-05-10T08:38:13;3.67;;;2.25;;
23015;SDS011;11674;52.428;13.584;2023-05-10T08:43:20;10.70;;;2.42;;
23015;SDS011;11674;52.428;13.584;2023-05-10T08:48:28;4.82;;;2.25;;
23015;SDS011;11674;52.428;13.584;2023-05-10T08:53:35;3.72;;;2.10;;
23015;SDS011;11674;52.428;13.584;2023-05-10T08:58:43;4.88;;;2.00;;
23015;SDS011;11674;52.428;13.584;2023-05-10T09:03:50;3.83;;;2.50;;
23015;SDS011;11674;52.428;13.584;2023-05-10T09:08:57;4.32;;;2.55;;
23015;SDS011;11674;52.428;13.584;2023-05-10T09:14:04;4.47;;;1.90;;
23015;SDS011;11674;52.428;13.584;2023-05-10T09:19:11;6.55;;;2.30;;
23015;SDS011;11674;52.428;13.584;2023-05-10T09:24:18;3.13;;;2.08;;
23015;SDS011;11674;52.428;13.584;2023-05-10T09:29:38;5.13;;;2.15;;
23015;SDS011;11674;52.428;13.584;2023-05-10T09:34:45;4.38;;;2.10;;
23015;SDS011;11674;52.428;13.584;2023-05-10T09:39:55;5.72;;;2.67;;
23015;SDS011;11674;52.428;13.584;2023-05-10T09:45:05;2.63;;;1.70;;
23015;SDS011;11674;52.428;13.584;2023-05-10T09:50:13;8.15;;;2.10;;
23015;SDS011;11674;52.428;13.584;2023-05-10T09:55:21;7.85;;;2.15;;
23015;SDS011;11674;52.428;13.584;2023-05-10T10:00:34;10.25;;;2.38;;
23015;SDS011;11674;52.428;13.584;2023-05-10T10:05:42;4.20;;;1.92;;
23015;SDS011;11674;52.428;13.584;2023-05-10T10:10:49;2.55;;;1.52;;
23015;SDS011;11674;52.428;13.584;2023-05-10T10:15:56;6.20;;;2.05;;
23015;SDS011;11674;52.428;13.584;2023-05-10T10:21:06;6.80;;;2.20;;
23015;SDS011;11674;52.428;13.584;2023-05-10T10:26:14;6.32;;;2.20;;
23015;SDS011;11674;52.428;13.584;2023-05-10T10:36:50;5.15;;;2.05;;
23015;SDS011;11674;52.428;13.584;2023-05-10T10:41:58;3.25;;;2.10;;
23015;SDS011;11674;52.428;13.584;2023-05-10T10:52:26;8.75;;;2.03;;
23015;SDS011;11674;52.428;13.584;2023-05-10T10:57:44;7.28;;;1.80;;
23015;SDS011;11674;52.428;13.584;2023-05-10T11:19:03;4.85;;;2.90;;
23015;SDS011;11674;52.428;13.584;2023-05-10T11:24:19;11.82;;;2.90;;
23015;SDS011;11674;52.428;13.584;2023-05-10T11:29:27;13.13;;;7.97;;
23015;SDS011;11674;52.428;13.584;2023-05-10T11:34:33;5.50;;;2.20;;
23015;SDS011;11674;52.428;13.584;2023-05-10T11:39:45;3.80;;;2.25;;
23015;SDS011;11674;52.428;13.584;2023-05-10T11:44:53;11.05;;;3.38;;
23015;SDS011;11674;52.428;13.584;2023-05-10T11:50:00;8.18;;;2.85;;
23015;SDS011;11674;52.428;13.584;2023-05-10T11:55:07;7.50;;;2.10;;
23015;SDS011;11674;52.428;13.584;2023-05-10T12:00:14;6.75;;;2.10;;
23015;SDS011;11674;52.428;13.584;2023-05-10T12:05:21;13.52;;;2.08;;
23015;SDS011;11674;52.428;13.584;2023-05-10T12:10:28;4.63;;;2.03;;
23015;SDS011;11674;52.428;13.584;2023-05-10T12:15:35;16.15;;;8.43;;
23015;SDS011;11674;52.428;13.584;2023-05-10T12:20:42;6.15;;;3.05;;
23015;SDS011;11674;52.428;13.584;2023-05-10T12:25:49;4.82;;;1.83;;
23015;SDS011;11674;52.428;13.584;2023-05-10T12:30:56;8.38;;;3.35;;
23015;SDS011;11674;52.428;13.584;2023-05-10T12:36:04;5.15;;;3.50;;
23015;SDS011;11674;52.428;13.584;2023-05-10T12:41:12;4.15;;;2.22;;
23015;SDS011;11674;52.428;13.584;2023-05-10T12:46:21;3.13;;;1.85;;
23015;SDS011;11674;52.428;13.584;2023-05-10T12:51:28;5.13;;;2.00;;
23015;SDS011;11674;52.428;13.584;2023-05-10T12:56:35;2.53;;;1.48;;
23015;SDS011;11674;52.428;13.584;2023-05-10T13:01:42;10.20;;;2.75;;
23015;SDS011;11674;52.428;13.584;2023-05-10T13:06:49;3.10;;;1.70;;
23015;SDS011;11674;52.428;13.584;2023-05-10T13:11:56;4.95;;;1.88;;
23015;SDS011;11674;52.428;13.584;2023-05-10T13:17:03;7.25;;;2.30;;
23015;SDS011;11674;52.428;13.584;2023-05-10T13:22:10;6.20;;;3.10;;
23015;SDS011;11674;52.428;13.584;2023-05-10T13:27:17;5.72;;;2.15;;
23015;SDS011;11674;52.428;13.584;2023-05-10T13:32:24;8.90;;;2.65;;
23015;SDS011;11674;52.428;13.584;2023-05-10T13:37:31;5.78;;;1.85;;
23015;SDS011;11674;52.428;13.584;2023-05-10T13:42:38;4.60;;;2.35;;
23015;SDS011;11674;52.428;13.584;2023-05-10T13:47:45;5.90;;;1.60;;
23015;SDS011;11674;52.428;13.584;2023-05-10T13:52:52;9.00;;;2.00;;
23015;SDS011;11674;52.428;13.584;2023-05-10T13:57:59;7.65;;;1.98;;
23015;SDS011;11674;52.428;13.584;2023-05-10T14:03:13;3.15;;;1.60;;
23015;SDS011;11674;52.428;13.584;2023-05-10T14:08:20;6.53;;;1.90;;
23015;SDS011;11674;52.428;13.584;2023-05-10T14:13:27;3.30;;;1.60;;
23015;SDS011;11674;52.428;13.584;2023-05-10T14:18:34;5.90;;;1.80;;
23015;SDS011;11674;52.428;13.584;2023-05-10T14:23:41;7.00;;;2.97;;
23015;SDS011;11674;52.428;13.584;2023-05-10T14:28:48;5.03;;;2.30;;
23015;SDS011;11674;52.428;13.584;2023-05-10T14:33:55;13.50;;;7.20;;
23015;SDS011;11674;52.428;13.584;2023-05-10T14:39:02;3.10;;;2.10;;
23015;SDS011;11674;52.428;13.584;2023-05-10T14:44:09;1.90;;;1.58;;
23015;SDS011;11674;52.428;13.584;2023-05-10T14:49:16;3.30;;;1.60;;
23015;SDS011;11674;52.428;13.584;2023-05-10T14:54:23;3.30;;;1.90;;
23015;SDS011;11674;52.428;13.584;2023-05-10T14:59:30;6.38;;;1.52;;
23015;SDS011;11674;52.428;13.584;2023-05-10T15:04:37;3.70;;;1.17;;
23015;SDS011;11674;52.428;13.584;2023-05-10T15:09:44;2.67;;;1.38;;
23015;SDS011;11674;52.428;13.584;2023-05-10T15:14:51;4.53;;;1.52;;
23015;SDS011;11674;52.428;13.584;2023-05-10T15:19:58;5.10;;;1.67;;
23015;SDS011;11674;52.428;13.584;2023-05-10T15:25:05;12.88;;;1.80;;
23015;SDS011;11674;52.428;13.584;2023-05-10T15:30:12;2.47;;;1.63;;
23015;SDS011;11674;52.428;13.584;2023-05-10T15:35:19;3.75;;;1.60;;
23015;SDS011;11674;52.428;13.584;2023-05-10T15:40:26;4.28;;;1.60;;
23015;SDS011;11674;52.428;13.584;2023-05-10T15:45:33;5.55;;;1.60;;
23015;SDS011;11674;52.428;13.584;2023-05-10T15:50:40;4.95;;;2.22;;
23015;SDS011;11674;52.428;13.584;2023-05-10T15:55:47;6.43;;;3.03;;
23015;SDS011;11674;52.428;13.584;2023-05-10T16:00:54;6.35;;;3.17;;
23015;SDS011;11674;52.428;13.584;2023-05-10T16:06:01;10.05;;;3.38;;
23015;SDS011;11674;52.428;13.584;2023-05-10T16:11:08;5.13;;;1.73;;
23015;SDS011;11674;52.428;13.584;2023-05-10T16:16:15;4.72;;;1.83;;
23015;SDS011;11674;52.428;13.584;2023-05-10T16:21:22;3.60;;;1.75;;
23015;SDS011;11674;52.428;13.584;2023-05-10T16:26:29;3.42;;;1.70;;
23015;SDS011;11674;52.428;13.584;2023-05-10T16:31:36;5.07;;;2.20;;
23015;SDS011;11674;52.428;13.584;2023-05-10T16:36:43;3.65;;;2.63;;
23015;SDS011;11674;52.428;13.584;2023-05-10T16:41:50;9.90;;;5.82;;
23015;SDS011;11674;52.428;13.584;2023-05-10T16:46:57;4.85;;;2.55;;
23015;SDS011;11674;52.428;13.584;2023-05-10T16:52:04;3.45;;;2.50;;
23015;SDS011;11674;52.428;13.584;2023-05-10T16:57:11;6.90;;;3.35;;
23015;SDS011;11674;52.428;13.584;2023-05-10T17:02:18;6.72;;;3.50;;
23015;SDS011;11674;52.428;13.584;2023-05-10T17:07:26;8.07;;;3.50;;
23015;SDS011;11674;52.428;13.584;2023-05-10T17:12:33;8.68;;;3.63;;
23015;SDS011;11674;52.428;13.584;2023-05-10T17:17:47;8.48;;;3.33;;
23015;SDS011;11674;52.428;13.584;2023-05-10T17:22:54;7.28;;;3.80;;
23015;SDS011;11674;52.428;13.584;2023-05-10T17:28:01;7.00;;;4.55;;
23015;SDS011;11674;52.428;13.584;2023-05-10T17:33:08;5.07;;;3.65;;
23015;SDS011;11674;52.428;13.584;2023-05-10T17:38:15;5.47;;;3.60;;
23015;SDS011;11674;52.428;13.584;2023-05-10T17:43:22;7.53;;;6.00;;
23015;SDS011;11674;52.428;13.584;2023-05-10T17:48:29;4.97;;;4.07;;
23015;SDS011;11674;52.428;13.584;2023-05-10T17:53:36;6.82;;;3.85;;
23015;SDS011;11674;52.428;13.584;2023-05-10T17:58:44;8.88;;;3.40;;
23015;SDS011;11674;52.428;13.584;2023-05-10T18:03:51;4.80;;;3.03;;
23015;SDS011;11674;52.428;13.584;2023-05-10T18:08:58;6.78;;;3.20;;
23015;SDS011;11674;52.428;13.584;2023-05-10T18:14:05;7.20;;;3.70;;
23015;SDS011;11674;52.428;13.584;2023-05-10T18:19:12;7.93;;;4.25;;
23015;SDS011;11674;52.428;13.584;2023-05-10T18:24:19;6.88;;;3.92;;
23015;SDS011;11674;52.428;13.584;2023-05-10T18:29:26;6.50;;;4.13;;
23015;SDS011;11674;52.428;13.584;2023-05-10T18:34:33;5.35;;;3.88;;
23015;SDS011;11674;52.428;13.584;2023-05-10T18:39:40;6.95;;;4.03;;
23015;SDS011;11674;52.428;13.584;2023-05-10T18:44:47;7.00;;;4.30;;
23015;SDS011;11674;52.428;13.584;2023-05-10T18:49:54;6.03;;;4.70;;
23015;SDS011;11674;52.428;13.584;2023-05-10T18:55:01;7.90;;;3.70;;
23015;SDS011;11674;52.428;13.584;2023-05-10T19:00:09;8.35;;;4.07;;
23015;SDS011;11674;52.428;13.584;2023-05-10T19:05:17;7.60;;;3.90;;
23015;SDS011;11674;52.428;13.584;2023-05-10T19:10:24;9.70;;;4.38;;
23015;SDS011;11674;52.428;13.584;2023-05-10T19:15:31;5.25;;;4.22;;
23015;SDS011;11674;52.428;13.584;2023-05-10T19:20:38;7.22;;;4.60;;
23015;SDS011;11674;52.428;13.584;2023-05-10T19:25:45;11.65;;;4.30;;
23015;SDS011;11674;52.428;13.584;2023-05-10T19:30:52;7.95;;;4.40;;
23015;SDS011;11674;52.428;13.584;2023-05-10T19:35:59;5.80;;;4.50;;
23015;SDS011;11674;52.428;13.584;2023-05-10T19:41:06;12.02;;;5.00;;
23015;SDS011;11674;52.428;13.584;2023-05-10T19:46:13;8.90;;;4.78;;
23015;SDS011;11674;52.428;13.584;2023-05-10T19:51:20;9.75;;;4.57;;
23015;SDS011;11674;52.428;13.584;2023-05-10T19:56:27;7.55;;;4.70;;
23015;SDS011;11674;52.428;13.584;2023-05-10T20:01:34;13.75;;;5.57;;
23015;SDS011;11674;52.428;13.584;2023-05-10T20:06:41;8.18;;;5.00;;
23015;SDS011;11674;52.428;13.584;2023-05-10T20:11:48;9.02;;;5.30;;
23015;SDS011;11674;52.428;13.584;2023-05-10T20:16:55;8.65;;;5.10;;
23015;SDS011;11674;52.428;13.584;2023-05-10T20:22:02;9.68;;;5.53;;
23015;SDS011;11674;52.428;13.584;2023-05-10T20:27:09;9.07;;;4.85;;
23015;SDS011;11674;52.428;13.584;2023-05-10T20:32:16;11.57;;;5.10;;
23015;SDS011;11674;52.428;13.584;2023-05-10T20:37:23;6.53;;;5.22;;
23015;SDS011;11674;52.428;13.584;2023-05-10T20:42:30;7.97;;;5.18;;
23015;SDS011;11674;52.428;13.584;2023-05-10T20:47:37;10.52;;;5.20;;
23015;SDS011;11674;52.428;13.584;2023-05-10T20:52:44;8.50;;;5.88;;
23015;SDS011;11674;52.428;13.584;2023-05-10T20:57:51;7.55;;;5.43;;
23015;SDS011;11674;52.428;13.584;2023-05-10T21:03:01;13.05;;;6.25;;
23015;SDS011;11674;52.428;13.584;2023-05-10T21:08:08;6.97;;;5.32;;
23015;SDS011;11674;52.428;13.584;2023-05-10T21:13:15;6.85;;;5.72;;
23015;SDS011;11674;52.428;13.584;2023-05-10T21:18:22;7.57;;;6.00;;
23015;SDS011;11674;52.428;13.584;2023-05-10T21:23:29;7.78;;;5.80;;
23015;SDS011;11674;52.428;13.584;2023-05-10T21:28:36;9.13;;;6.35;;
23015;SDS011;11674;52.428;13.584;2023-05-10T21:33:43;9.57;;;6.60;;
23015;SDS011;11674;52.428;13.584;2023-05-10T21:38:50;12.48;;;6.43;;
23015;SDS011;11674;52.428;13.584;2023-05-10T21:43:57;11.35;;;7.20;;
23015;SDS011;11674;52.428;13.584;2023-05-10T21:49:04;9.18;;;6.05;;
23015;SDS011;11674;52.428;13.584;2023-05-10T21:54:11;13.27;;;6.60;;
23015;SDS011;11674;52.428;13.584;2023-05-10T21:59:18;9.57;;;6.65;;
23015;SDS011;11674;52.428;13.584;2023-05-10T22:04:25;8.52;;;6.65;;
23015;SDS011;11674;52.428;13.584;2023-05-10T22:09:32;8.95;;;6.65;;
23015;SDS011;11674;52.428;13.584;2023-05-10T22:14:39;11.52;;;6.70;;
23015;SDS011;11674;52.428;13.584;2023-05-10T22:19:46;12.23;;;7.03;;
23015;SDS011;11674;52.428;13.584;2023-05-10T22:24:53;10.00;;;6.80;;
23015;SDS011;11674;52.428;13.584;2023-05-10T22:30:00;11.70;;;6.57;;
23015;SDS011;11674;52.428;13.584;2023-05-10T22:35:07;10.57;;;6.25;;
23015;SDS011;11674;52.428;13.584;2023-05-10T22:40:14;9.70;;;7.15;;
23015;SDS011;11674;52.428;13.584;2023-05-10T22:45:21;9.88;;;6.63;;
23015;SDS011;11674;52.428;13.584;2023-05-10T22:50:28;9.85;;;6.72;;
23015;SDS011;11674;52.428;13.584;2023-05-10T22:55:35;10.40;;;7.57;;
23015;SDS011;11674;52.428;13.584;2023-05-10T23:00:42;9.02;;;6.63;;
23015;SDS011;11674;52.428;13.584;2023-05-10T23:05:49;10.45;;;6.85;;
23015;SDS011;11674;52.428;13.584;2023-05-10T23:10:56;9.30;;;6.93;;
23015;SDS011;11674;52.428;13.584;2023-05-10T23:16:04;9.40;;;7.03;;
23015;SDS011;11674;52.428;13.584;2023-05-10T23:21:11;8.55;;;6.78;;
23015;SDS011;11674;52.428;13.584;2023-05-10T23:26:18;10.10;;;6.93;;
23015;SDS011;11674;52.428;13.584;2023-05-10T23:31:25;12.55;;;6.97;;
23015;SDS011;11674;52.428;13.584;2023-05-10T23:36:32;8.25;;;6.82;;
23015;SDS011;11674;52.428;13.584;2023-05-10T23:41:39;9.45;;;6.75;;
23015;SDS011;11674;52.428;13.584;2023-05-10T23:46:46;12.93;;;7.05;;
23015;SDS011;11674;52.428;13.584;2023-05-10T23:51:53;9.23;;;6.60;;
23015;SDS011;11674;52.428;13.584;2023-05-10T23:57:00;9.05;;;6.88;;
